METAR AND TAF INFORMATION
METAR FOR KSAV
KSAV 260353Z 16003KT 10SM BKN220 10/04 A3022 RMK AO2 SLP231 T01000039
KSAV 260253Z 15004KT 10SM BKN220 10/03 A3022 RMK AO2 SLP232 T01000033 51010
KSAV 260153Z 14004KT 10SM FEW250 11/03 A3021 RMK AO2 SLP231 T01060028
KSAV 252320Z 2600/2624 15005KT P6SM SCT250
FM260400 00000KT P6SM SCT250
FM261500 20007KT P6SM FEW250

 AIRPORT MAP

 RUNWAY INFORMATION
Runway 01 Runway length 7002 ft Runway width 150 ft
Runway elevation 29 ft Runway displaced threshold 0 ft Runway heading 0
Runway 19 Runway length 7002 ft Runway width 150 ft
Runway elevation 42 ft Runway displaced threshold 0 ft Runway heading 180
Runway 10 Runway length 9351 ft Runway width 150 ft
Runway elevation 17 ft Runway displaced threshold 0 ft Runway heading 91
Runway 28 Runway length 9351 ft Runway width 150 ft
Runway elevation 46 ft Runway displaced threshold 0 ft Runway heading 271

 AIRPORT FREQUENCIES
Type A/D Name APP/DEP Frequency 118.4 MHZ
Type ATIS Name ATIS Frequency 123.75 MHZ
Type CLD Name CLNC DEL Frequency 119.55 MHZ
Type CTAF Name CTAF Frequency 119.1 MHZ
Type GND Name GND Frequency 121.9 MHZ
Type MISC Name ANDERSON R Frequency 112.7 MHZ
Type OPS Name CRTC OPS Frequency 23.7 MHZ
Type POST Name 165 AW COM Frequency 22.575 MHZ
Type RDO Name MACON RDO Frequency 123.65 MHZ
Type TWR Name TWR Frequency 119.1 MHZ
Type UNIC Name UNICOM Frequency 122.95 MHZ

 AIRPORT NEAR NAVIGATION AIDS
Type NDB Name Mavis Frequency 368 KHZ
Type VORTAC Name Savannah Frequency 115950 KHZ

-